createdAt,value
2023-07-11T00:00:19.355Z,19.01
2023-07-11T00:01:19.593Z,19.01
2023-07-11T00:02:19.717Z,19.01
2023-07-11T00:03:19.929Z,19.01
2023-07-11T00:04:20.016Z,18.99
2023-07-11T00:05:20.204Z,18.98
2023-07-11T00:06:20.382Z,18.95
2023-07-11T00:07:20.561Z,18.94
2023-07-11T00:08:20.729Z,18.91
2023-07-11T00:09:20.895Z,18.90
2023-07-11T00:10:21.064Z,18.88
2023-07-11T00:11:21.208Z,18.89
2023-07-11T00:12:21.344Z,18.87
2023-07-11T00:13:21.462Z,18.86
2023-07-11T00:14:21.606Z,18.83
2023-07-11T00:15:21.722Z,18.81
2023-07-11T00:16:21.917Z,18.79
2023-07-11T00:17:22.036Z,18.76
2023-07-11T00:18:22.151Z,18.75
2023-07-11T00:19:22.289Z,18.75
2023-07-11T00:20:22.432Z,18.74
2023-07-11T00:21:22.540Z,18.72
2023-07-11T00:22:22.673Z,18.71
2023-07-11T00:23:22.811Z,18.69
2023-07-11T00:24:22.954Z,18.67
2023-07-11T00:25:23.068Z,18.65
2023-07-11T00:26:23.231Z,18.64
2023-07-11T00:27:23.376Z,18.62
2023-07-11T00:28:23.504Z,18.59
2023-07-11T00:29:23.629Z,18.58
2023-07-11T00:30:23.799Z,18.56
2023-07-11T00:31:23.933Z,18.57
2023-07-11T00:32:24.044Z,18.55
2023-07-11T00:33:24.138Z,18.53
2023-07-11T00:34:24.282Z,18.53
2023-07-11T00:35:24.402Z,18.53
2023-07-11T00:36:24.525Z,18.52
2023-07-11T00:37:24.648Z,18.51
2023-07-11T00:38:24.781Z,18.52
2023-07-11T00:39:24.952Z,18.53
2023-07-11T00:40:25.062Z,18.53
2023-07-11T00:41:25.212Z,18.51
2023-07-11T00:42:25.361Z,18.51
2023-07-11T00:43:25.482Z,18.55
2023-07-11T00:44:25.622Z,18.59
2023-07-11T00:45:25.757Z,18.55
2023-07-11T00:46:25.910Z,18.51
2023-07-11T00:47:26.090Z,18.49
2023-07-11T00:48:26.206Z,18.47
2023-07-11T00:49:26.369Z,18.44
2023-07-11T00:50:26.560Z,18.40
2023-07-11T00:51:26.685Z,18.38
2023-07-11T00:52:26.857Z,18.37
2023-07-11T00:53:26.996Z,18.35
2023-07-11T00:54:27.164Z,18.32
2023-07-11T00:55:27.314Z,18.29
2023-07-11T00:56:27.451Z,18.28
2023-07-11T00:57:27.627Z,18.29
2023-07-11T00:58:27.760Z,18.33
2023-07-11T00:59:27.931Z,18.34
2023-07-11T01:00:28.137Z,18.34
2023-07-11T01:01:28.274Z,18.30
2023-07-11T01:02:28.593Z,18.29
2023-07-11T01:03:28.748Z,18.22
2023-07-11T01:04:28.791Z,18.19
2023-07-11T01:05:29.004Z,18.16
2023-07-11T01:06:29.174Z,18.18
2023-07-11T01:07:29.405Z,18.20
2023-07-11T01:08:29.517Z,18.22
2023-07-11T01:09:29.679Z,18.21
2023-07-11T01:10:29.829Z,18.18
2023-07-11T01:11:29.998Z,18.16
2023-07-11T01:12:30.428Z,18.13
2023-07-11T01:13:30.408Z,18.10
2023-07-11T01:14:30.603Z,18.09
2023-07-11T01:15:30.741Z,18.09
2023-07-11T01:16:31.477Z,18.08
2023-07-11T01:17:31.051Z,18.08
2023-07-11T01:18:31.246Z,18.06
2023-07-11T01:19:31.391Z,18.06
2023-07-11T01:20:31.577Z,18.05
2023-07-11T01:21:31.748Z,18.03
2023-07-11T01:22:31.963Z,18.02
2023-07-11T01:23:32.113Z,17.99
2023-07-11T01:24:32.276Z,17.98
2023-07-11T01:25:32.467Z,17.96
2023-07-11T01:26:32.682Z,17.93
2023-07-11T01:27:32.868Z,17.91
2023-07-11T01:28:33.057Z,17.91
2023-07-11T01:29:33.256Z,17.90
2023-07-11T01:30:34.475Z,17.92
2023-07-11T01:31:33.699Z,17.92
2023-07-11T01:32:33.885Z,17.91
2023-07-11T01:33:34.037Z,17.90
2023-07-11T01:34:34.140Z,17.88
2023-07-11T01:35:34.249Z,17.86
2023-07-11T01:36:34.393Z,17.85
2023-07-11T01:37:34.527Z,17.83
2023-07-11T01:38:34.644Z,17.82
2023-07-11T01:39:34.784Z,17.81
2023-07-11T01:40:34.918Z,17.81
2023-07-11T01:41:35.073Z,17.79
2023-07-11T01:42:35.187Z,17.78
2023-07-11T01:43:35.405Z,17.76
2023-07-11T01:44:35.569Z,17.80
2023-07-11T01:45:35.789Z,17.79
2023-07-11T01:46:36.037Z,17.77
2023-07-11T01:47:36.236Z,17.75
2023-07-11T01:48:36.396Z,17.74
2023-07-11T01:49:36.531Z,17.72
2023-07-11T01:50:36.674Z,17.74
2023-07-11T01:51:36.846Z,17.73
2023-07-11T01:52:36.995Z,17.74
2023-07-11T01:53:37.151Z,17.72
2023-07-11T01:54:37.343Z,17.71
2023-07-11T01:55:37.468Z,17.71
2023-07-11T01:56:37.632Z,17.71
2023-07-11T01:57:37.944Z,17.69
2023-07-11T01:58:37.888Z,17.70
2023-07-11T01:59:38.083Z,17.67
2023-07-11T02:00:38.184Z,17.65
2023-07-11T02:01:38.365Z,17.63
2023-07-11T02:02:38.648Z,17.56
2023-07-11T02:03:38.819Z,17.56
2023-07-11T02:04:38.901Z,17.55
2023-07-11T02:05:39.105Z,17.54
2023-07-11T02:06:39.254Z,17.54
2023-07-11T02:07:39.424Z,17.52
2023-07-11T02:08:39.569Z,17.51
2023-07-11T02:09:39.733Z,17.50
2023-07-11T02:10:39.860Z,17.48
2023-07-11T02:11:40.016Z,17.48
2023-07-11T02:12:40.170Z,17.48
2023-07-11T02:13:40.318Z,17.48
2023-07-11T02:14:40.422Z,17.48
2023-07-11T02:15:40.562Z,17.48
2023-07-11T02:16:40.803Z,17.47
2023-07-11T02:17:40.966Z,17.46
2023-07-11T02:18:40.972Z,17.46
2023-07-11T02:19:41.145Z,17.46
2023-07-11T02:20:41.287Z,17.44
2023-07-11T02:21:41.939Z,17.43
2023-07-11T02:22:41.530Z,17.44
2023-07-11T02:23:41.682Z,17.42
2023-07-11T02:24:41.803Z,17.42
2023-07-11T02:25:41.968Z,17.43
2023-07-11T02:26:42.087Z,17.42
2023-07-11T02:27:42.225Z,17.44
2023-07-11T02:28:42.362Z,17.44
2023-07-11T02:29:42.496Z,17.44
2023-07-11T02:30:42.634Z,17.44
2023-07-11T02:31:42.847Z,17.44
2023-07-11T02:32:42.989Z,17.42
2023-07-11T02:33:43.070Z,17.42
2023-07-11T02:34:43.222Z,17.41
2023-07-11T02:35:43.391Z,17.37
2023-07-11T02:36:43.568Z,17.37
2023-07-11T02:37:43.785Z,17.39
2023-07-11T02:38:44.000Z,17.37
2023-07-11T02:39:44.179Z,17.36
2023-07-11T02:40:44.382Z,17.36
2023-07-11T02:41:44.578Z,17.36
2023-07-11T02:42:44.747Z,17.35
2023-07-11T02:43:44.930Z,17.33
2023-07-11T02:44:45.117Z,17.32
2023-07-11T02:45:45.360Z,17.30
2023-07-11T02:46:45.494Z,17.30
2023-07-11T02:47:45.739Z,17.28
2023-07-11T02:48:45.886Z,17.28
2023-07-11T02:49:46.106Z,17.25
2023-07-11T02:50:46.326Z,17.26
2023-07-11T02:51:46.510Z,17.26
2023-07-11T02:52:46.679Z,17.23
2023-07-11T02:53:46.909Z,17.22
2023-07-11T02:54:47.066Z,17.21
2023-07-11T02:55:47.246Z,17.22
2023-07-11T02:56:47.417Z,17.20
2023-07-11T02:57:47.644Z,17.19
2023-07-11T02:58:47.782Z,17.19
2023-07-11T02:59:47.975Z,17.17
2023-07-11T03:00:48.182Z,17.18
2023-07-11T03:01:48.339Z,17.18
2023-07-11T03:02:48.630Z,17.15
2023-07-11T03:03:48.731Z,17.14
2023-07-11T03:04:48.937Z,17.12
2023-07-11T03:05:49.113Z,17.17
2023-07-11T03:06:49.300Z,17.18
2023-07-11T03:07:49.516Z,17.18
2023-07-11T03:08:49.737Z,17.12
2023-07-11T03:09:49.923Z,17.11
2023-07-11T03:10:50.101Z,17.12
2023-07-11T03:11:50.307Z,17.09
2023-07-11T03:12:50.583Z,17.07
2023-07-11T03:13:50.723Z,17.06
2023-07-11T03:14:50.927Z,17.03
2023-07-11T03:15:51.153Z,17.02
2023-07-11T03:16:51.313Z,17.01
2023-07-11T03:17:51.496Z,16.97
2023-07-11T03:18:51.617Z,16.96
2023-07-11T03:19:51.812Z,16.95
2023-07-11T03:20:51.983Z,16.93
2023-07-11T03:21:52.177Z,16.92
2023-07-11T03:22:52.339Z,16.91
2023-07-11T03:23:52.551Z,16.89
2023-07-11T03:24:52.753Z,16.88
2023-07-11T03:25:52.978Z,16.87
2023-07-11T03:26:53.170Z,16.86
2023-07-11T03:27:53.377Z,16.85
2023-07-11T03:28:53.576Z,16.85
2023-07-11T03:29:53.813Z,16.85
2023-07-11T03:30:54.028Z,16.85
2023-07-11T03:31:54.208Z,16.85
2023-07-11T03:32:54.430Z,16.85
2023-07-11T03:33:54.604Z,16.87
2023-07-11T03:35:02.650Z,16.87
2023-07-11T03:35:55.931Z,16.85
2023-07-11T03:36:55.067Z,16.91
2023-07-11T03:37:55.220Z,16.95
2023-07-11T03:38:55.362Z,16.97
2023-07-11T03:39:55.552Z,16.96
2023-07-11T03:40:55.634Z,16.94
2023-07-11T03:41:55.777Z,16.91
2023-07-11T03:42:55.949Z,16.90
2023-07-11T03:43:56.086Z,16.89
2023-07-11T03:44:56.194Z,16.88
2023-07-11T03:45:56.394Z,16.88
2023-07-11T03:46:56.575Z,16.91
2023-07-11T03:47:56.768Z,16.99
2023-07-11T03:48:56.871Z,16.99
2023-07-11T03:49:56.997Z,16.96
2023-07-11T03:50:57.961Z,16.95
2023-07-11T03:51:57.295Z,16.96
2023-07-11T03:52:57.419Z,16.99
2023-07-11T03:53:57.560Z,17.00
2023-07-11T03:54:57.707Z,17.02
2023-07-11T03:55:57.887Z,17.04
2023-07-11T03:56:58.025Z,17.05
2023-07-11T03:57:58.199Z,17.09
2023-07-11T03:58:58.394Z,17.09
2023-07-11T03:59:58.622Z,17.09
2023-07-11T04:00:58.821Z,17.11
2023-07-11T04:01:59.048Z,17.16
2023-07-11T04:02:59.237Z,17.19
2023-07-11T04:03:59.356Z,17.20
2023-07-11T04:04:59.433Z,17.21
2023-07-11T04:05:59.594Z,17.22
2023-07-11T04:06:59.730Z,17.24
2023-07-11T04:07:59.882Z,17.26
2023-07-11T04:09:00.037Z,17.26
2023-07-11T04:10:00.194Z,17.27
2023-07-11T04:11:00.303Z,17.28
2023-07-11T04:12:00.427Z,17.33
2023-07-11T04:13:00.569Z,17.36
2023-07-11T04:14:00.780Z,17.35
2023-07-11T04:15:00.879Z,17.37
2023-07-11T04:16:01.013Z,17.38
2023-07-11T04:17:01.257Z,17.34
2023-07-11T04:18:01.359Z,17.36
2023-07-11T04:19:01.487Z,17.38
2023-07-11T04:20:01.689Z,17.41
2023-07-11T04:21:01.904Z,17.44
2023-07-11T04:22:02.100Z,17.45
2023-07-11T04:23:02.306Z,17.47
2023-07-11T04:24:02.465Z,17.50
2023-07-11T04:25:02.613Z,17.52
2023-07-11T04:26:02.794Z,17.54
2023-07-11T04:27:02.922Z,17.55
2023-07-11T04:28:03.096Z,17.58
2023-07-11T04:29:03.288Z,17.62
2023-07-11T04:30:03.480Z,17.69
2023-07-11T04:31:03.699Z,17.74
2023-07-11T04:32:03.887Z,17.76
2023-07-11T04:33:04.188Z,17.76
2023-07-11T04:34:04.293Z,17.77
2023-07-11T04:35:04.566Z,17.76
2023-07-11T04:36:04.605Z,17.79
2023-07-11T04:37:04.781Z,17.82
2023-07-11T04:38:04.929Z,17.82
2023-07-11T04:39:05.099Z,17.82
2023-07-11T04:40:05.279Z,17.85
2023-07-11T04:41:05.404Z,17.86
2023-07-11T04:42:05.576Z,17.88
2023-07-11T04:43:05.719Z,17.86
2023-07-11T04:44:05.894Z,17.90
2023-07-11T04:45:06.029Z,17.92
2023-07-11T04:46:06.552Z,17.97
2023-07-11T04:47:06.425Z,18.02
2023-07-11T04:48:06.617Z,18.05
2023-07-11T04:49:06.782Z,18.09
2023-07-11T04:50:06.967Z,18.17
2023-07-11T04:51:07.168Z,18.18
2023-07-11T04:52:07.320Z,18.17
2023-07-11T04:53:07.500Z,18.18
2023-07-11T04:54:07.703Z,18.21
2023-07-11T04:55:07.861Z,18.25
2023-07-11T04:56:08.288Z,18.28
2023-07-11T04:57:08.238Z,18.30
2023-07-11T04:58:08.401Z,18.33
2023-07-11T04:59:08.556Z,18.35
2023-07-11T05:00:08.734Z,18.38
2023-07-11T05:01:08.910Z,18.42
2023-07-11T05:02:09.065Z,18.53
2023-07-11T05:03:09.293Z,18.57
2023-07-11T05:04:09.393Z,18.59
2023-07-11T05:05:09.460Z,18.64
2023-07-11T05:06:10.171Z,18.64
2023-07-11T05:07:09.721Z,18.65
2023-07-11T05:08:09.844Z,18.68
2023-07-11T05:09:09.955Z,18.72
2023-07-11T05:10:10.120Z,18.72
2023-07-11T05:11:10.231Z,18.82
2023-07-11T05:12:10.325Z,18.86
2023-07-11T05:13:11.504Z,18.90
2023-07-11T05:14:10.699Z,18.91
2023-07-11T05:15:10.704Z,18.91
2023-07-11T05:16:11.030Z,18.91
2023-07-11T05:17:11.087Z,18.93
2023-07-11T05:18:11.080Z,18.94
2023-07-11T05:19:11.183Z,18.96
2023-07-11T05:20:11.295Z,18.98
2023-07-11T05:21:11.424Z,18.99
2023-07-11T05:22:11.550Z,19.04
2023-07-11T05:23:11.670Z,19.06
2023-07-11T05:24:11.949Z,19.08
2023-07-11T05:25:12.020Z,19.12
2023-07-11T05:26:12.196Z,19.15
2023-07-11T05:27:12.334Z,19.16
2023-07-11T05:28:12.472Z,19.18
2023-07-11T05:29:12.643Z,19.18
2023-07-11T05:30:12.818Z,19.24
2023-07-11T05:31:13.042Z,19.28
2023-07-11T05:32:13.165Z,19.32
2023-07-11T05:33:13.285Z,19.38
2023-07-11T05:34:13.466Z,19.42
2023-07-11T05:35:13.630Z,19.45
2023-07-11T05:36:13.805Z,19.48
2023-07-11T05:37:13.995Z,19.51
2023-07-11T05:38:14.221Z,19.52
2023-07-11T05:39:14.292Z,19.55
2023-07-11T05:40:14.456Z,19.55
2023-07-11T05:41:14.636Z,19.58
2023-07-11T05:42:14.800Z,19.61
2023-07-11T05:43:15.018Z,19.64
2023-07-11T05:44:15.146Z,19.67
2023-07-11T05:45:15.252Z,19.71
2023-07-11T05:46:15.444Z,19.74
2023-07-11T05:47:15.523Z,19.72
2023-07-11T05:48:15.693Z,19.74
2023-07-11T05:49:15.732Z,19.78
2023-07-11T05:50:15.845Z,19.79
2023-07-11T05:51:15.950Z,19.84
2023-07-11T05:52:16.067Z,19.89
2023-07-11T05:53:16.201Z,19.93
2023-07-11T05:54:16.312Z,19.94
2023-07-11T05:55:16.396Z,19.98
2023-07-11T05:56:16.609Z,19.96
2023-07-11T05:57:16.715Z,19.99
2023-07-11T05:58:16.865Z,20.05
2023-07-11T05:59:17.058Z,20.15
2023-07-11T06:00:17.156Z,20.22
2023-07-11T06:01:17.320Z,20.23
2023-07-11T06:02:17.445Z,20.26
2023-07-11T06:03:17.663Z,20.34
2023-07-11T06:04:17.727Z,20.36
2023-07-11T06:05:17.945Z,20.38
2023-07-11T06:06:18.097Z,20.43
2023-07-11T06:07:18.291Z,20.46
2023-07-11T06:08:18.499Z,20.57
2023-07-11T06:09:18.670Z,20.79
2023-07-11T06:10:18.757Z,21.32
2023-07-11T06:11:18.921Z,21.98
2023-07-11T06:12:19.058Z,22.83
2023-07-11T06:13:19.524Z,23.66
2023-07-11T06:14:19.352Z,24.51
2023-07-11T06:15:19.410Z,25.22
2023-07-11T06:16:19.575Z,25.65
2023-07-11T06:17:19.665Z,26.25
2023-07-11T06:18:19.814Z,26.87
2023-07-11T06:19:19.903Z,27.30
2023-07-11T06:20:20.044Z,27.69
2023-07-11T06:21:20.112Z,28.07
2023-07-11T06:22:20.170Z,28.47
2023-07-11T06:23:20.242Z,28.71
2023-07-11T06:24:20.332Z,28.88
2023-07-11T06:25:20.377Z,28.88
2023-07-11T06:26:20.414Z,28.74
2023-07-11T06:27:20.482Z,28.50
2023-07-11T06:28:20.610Z,28.29
2023-07-11T06:29:20.593Z,28.04
2023-07-11T06:30:20.689Z,27.82
2023-07-11T06:31:20.738Z,27.69
2023-07-11T06:32:20.787Z,27.55
2023-07-11T06:33:20.822Z,27.41
2023-07-11T06:34:20.837Z,27.35
2023-07-11T06:35:21.042Z,27.23
2023-07-11T06:36:21.051Z,27.06
2023-07-11T06:37:21.116Z,26.85
2023-07-11T06:38:21.244Z,26.72
2023-07-11T06:39:21.366Z,26.68
2023-07-11T06:40:21.495Z,26.72
2023-07-11T06:41:21.541Z,26.77
2023-07-11T06:42:21.612Z,26.90
2023-07-11T06:43:21.741Z,27.00
2023-07-11T06:44:21.808Z,27.09
2023-07-11T06:45:21.844Z,27.10
2023-07-11T06:46:21.889Z,27.07
2023-07-11T06:47:22.110Z,27.07
2023-07-11T06:48:22.021Z,27.10
2023-07-11T06:49:22.058Z,27.20
2023-07-11T06:50:23.000Z,27.20
2023-07-11T06:51:23.025Z,27.26
2023-07-11T06:52:22.197Z,27.30
2023-07-11T06:53:22.274Z,27.38
2023-07-11T06:54:22.308Z,27.49
2023-07-11T06:55:22.481Z,27.36
2023-07-11T06:56:22.513Z,27.31
2023-07-11T06:57:22.546Z,27.42
2023-07-11T06:58:22.621Z,27.55
2023-07-11T06:59:22.658Z,27.57
2023-07-11T07:00:22.821Z,27.69
2023-07-11T07:01:35.469Z,27.85
2023-07-11T07:02:23.952Z,28.04
2023-07-11T07:03:22.945Z,28.18
2023-07-11T07:04:22.968Z,28.19
2023-07-11T07:05:22.900Z,28.26
2023-07-11T07:06:22.966Z,28.25
2023-07-11T07:07:22.946Z,28.41
2023-07-11T07:08:22.982Z,28.52
2023-07-11T07:09:24.506Z,28.65
2023-07-11T07:10:23.007Z,28.72
2023-07-11T07:11:23.063Z,28.78
2023-07-11T07:12:22.979Z,28.87
2023-07-11T07:13:23.082Z,28.75
2023-07-11T07:14:23.055Z,28.74
2023-07-11T07:15:23.051Z,28.71
2023-07-11T07:16:23.077Z,28.84
2023-07-11T07:17:23.164Z,28.87
2023-07-11T07:18:23.029Z,28.99
2023-07-11T07:19:23.023Z,29.01
2023-07-11T07:20:23.006Z,29.11
2023-07-11T07:21:22.989Z,29.24
2023-07-11T07:22:22.990Z,29.43
2023-07-11T07:23:23.014Z,29.45
2023-07-11T07:24:23.130Z,29.54
2023-07-11T07:25:25.008Z,29.67
2023-07-11T07:26:22.972Z,29.76
2023-07-11T07:27:28.204Z,29.75
2023-07-11T07:28:24.067Z,29.74
2023-07-11T07:29:22.950Z,29.82
2023-07-11T07:30:23.073Z,29.93
2023-07-11T07:31:23.610Z,29.87
2023-07-11T07:32:23.011Z,29.92
2023-07-11T07:33:23.127Z,30.06
2023-07-11T07:34:22.980Z,30.19
2023-07-11T07:35:22.840Z,30.22
2023-07-11T07:36:22.852Z,30.32
2023-07-11T07:37:22.835Z,30.31
2023-07-11T07:38:22.844Z,30.38
2023-07-11T07:39:22.871Z,30.44
2023-07-11T07:40:22.895Z,30.47
2023-07-11T07:41:22.991Z,30.49
2023-07-11T07:42:22.941Z,30.63
2023-07-11T07:43:22.981Z,30.76
2023-07-11T07:44:22.992Z,30.76
2023-07-11T07:45:23.020Z,30.94
2023-07-11T07:46:23.059Z,31.06
2023-07-11T07:47:23.072Z,31.17
2023-07-11T07:48:22.992Z,31.25
2023-07-11T07:49:22.978Z,31.30
2023-07-11T07:50:23.138Z,31.26
2023-07-11T07:51:23.043Z,31.21
2023-07-11T07:52:23.114Z,31.24
2023-07-11T07:53:23.277Z,31.21
2023-07-11T07:54:23.165Z,31.27
2023-07-11T07:55:23.195Z,31.38
2023-07-11T07:56:23.205Z,31.46
2023-07-11T07:57:23.243Z,31.62
2023-07-11T07:58:40.535Z,31.68
2023-07-11T07:59:24.204Z,31.76
2023-07-11T08:00:23.263Z,31.89
2023-07-11T08:01:23.111Z,31.80
2023-07-11T08:02:23.248Z,31.86
2023-07-11T08:03:23.181Z,31.97
2023-07-11T08:04:23.166Z,31.97
2023-07-11T08:05:23.036Z,31.92
2023-07-11T08:06:23.596Z,31.95
2023-07-11T08:07:22.994Z,32.07
2023-07-11T08:08:23.005Z,32.15
2023-07-11T08:09:22.974Z,32.23
2023-07-11T08:10:23.026Z,32.15
2023-07-11T08:11:23.036Z,32.16
2023-07-11T08:12:22.999Z,32.24
2023-07-11T08:13:22.985Z,32.18
2023-07-11T08:14:22.970Z,32.00
2023-07-11T08:15:22.861Z,32.02
2023-07-11T08:16:29.602Z,31.97
2023-07-11T08:17:23.873Z,31.96
2023-07-11T08:18:22.866Z,31.93
2023-07-11T08:19:22.775Z,32.01
2023-07-11T08:20:22.851Z,32.08
2023-07-11T08:21:22.773Z,32.15
2023-07-11T08:22:22.698Z,32.35
2023-07-11T08:23:22.802Z,32.20
2023-07-11T08:24:22.680Z,32.23
2023-07-11T08:25:22.632Z,32.44
2023-07-11T08:26:22.663Z,32.64
2023-07-11T08:27:22.579Z,32.57
2023-07-11T08:28:22.566Z,32.79
2023-07-11T08:29:29.659Z,32.90
2023-07-11T08:30:23.468Z,32.86
2023-07-11T08:31:22.536Z,32.70
2023-07-11T08:32:22.485Z,32.66
2023-07-11T08:33:22.341Z,32.76
2023-07-11T08:34:22.319Z,32.84
2023-07-11T08:35:22.279Z,32.86
2023-07-11T08:36:22.243Z,32.81
2023-07-11T08:37:22.210Z,32.87
2023-07-11T08:38:22.179Z,32.93
2023-07-11T08:39:22.147Z,33.06
2023-07-11T08:40:31.208Z,33.04
2023-07-11T08:41:23.077Z,33.16
2023-07-11T08:42:22.022Z,32.86
2023-07-11T08:43:21.992Z,32.85
2023-07-11T08:44:21.953Z,33.03
2023-07-11T08:45:21.925Z,33.24
2023-07-11T08:46:21.914Z,33.21
2023-07-11T08:47:21.862Z,33.16
2023-07-11T08:48:21.818Z,33.32
2023-07-11T08:49:21.791Z,33.49
2023-07-11T08:50:21.730Z,33.42
2023-07-11T08:51:21.680Z,33.49
2023-07-11T08:52:21.666Z,33.23
2023-07-11T08:53:21.623Z,33.28
2023-07-11T08:54:22.499Z,33.44
2023-07-11T08:55:21.505Z,33.52
2023-07-11T08:56:21.460Z,33.49
2023-07-11T08:57:21.393Z,33.46
2023-07-11T08:58:21.399Z,33.27
2023-07-11T08:59:21.321Z,33.45
2023-07-11T09:00:21.291Z,33.60
2023-07-11T09:01:21.253Z,33.74
2023-07-11T09:02:21.212Z,33.79
2023-07-11T09:03:21.170Z,33.75
2023-07-11T09:04:21.147Z,33.81
2023-07-11T09:05:21.030Z,33.82
2023-07-11T09:06:20.992Z,33.76
2023-07-11T09:07:20.930Z,33.84
2023-07-11T09:08:20.876Z,33.63
2023-07-11T09:09:20.833Z,33.80
2023-07-11T09:10:21.593Z,33.97
2023-07-11T09:11:20.722Z,33.86
2023-07-11T09:12:20.685Z,33.84
2023-07-11T09:13:20.665Z,34.10
2023-07-11T09:14:20.597Z,33.96
2023-07-11T09:15:20.548Z,34.00
2023-07-11T09:16:20.531Z,34.07
2023-07-11T09:17:20.434Z,34.04
2023-07-11T09:18:20.404Z,33.72
2023-07-11T09:19:20.336Z,33.61
2023-07-11T09:20:20.323Z,33.73
2023-07-11T09:21:20.267Z,33.87
2023-07-11T09:22:20.198Z,33.85
2023-07-11T09:23:37.071Z,33.58
2023-07-11T09:24:22.543Z,33.54
2023-07-11T09:25:20.270Z,33.78
2023-07-11T09:26:20.282Z,34.04
2023-07-11T09:27:20.243Z,33.97
2023-07-11T09:28:20.248Z,33.61
2023-07-11T09:29:20.211Z,33.23
2023-07-11T09:30:20.248Z,33.16
2023-07-11T09:31:20.337Z,33.15
2023-07-11T09:32:20.397Z,33.26
2023-07-11T09:33:20.357Z,33.03
2023-07-11T09:34:20.285Z,32.91
2023-07-11T09:35:20.260Z,32.91
2023-07-11T09:36:20.256Z,32.87
2023-07-11T09:37:20.259Z,33.14
2023-07-11T09:38:20.258Z,33.42
2023-07-11T09:39:20.254Z,33.30
2023-07-11T09:40:20.241Z,33.35
2023-07-11T09:41:20.201Z,33.36
2023-07-11T09:42:20.160Z,33.48
2023-07-11T09:43:20.132Z,33.70
2023-07-11T09:44:20.136Z,33.87
2023-07-11T09:45:20.164Z,34.05
2023-07-11T09:46:20.183Z,33.86
2023-07-11T09:47:20.141Z,33.74
2023-07-11T09:48:20.145Z,33.79
2023-07-11T09:49:20.111Z,33.75
2023-07-11T09:50:25.851Z,33.80
2023-07-11T09:51:21.106Z,33.95
2023-07-11T09:52:20.053Z,33.96
2023-07-11T09:53:20.032Z,34.03
2023-07-11T09:54:20.009Z,34.03
2023-07-11T09:55:20.011Z,33.81
2023-07-11T09:56:20.196Z,33.84
2023-07-11T09:57:20.021Z,33.78
2023-07-11T09:58:19.891Z,33.94
2023-07-11T09:59:19.889Z,34.05
2023-07-11T10:00:23.050Z,34.21
2023-07-11T10:01:19.865Z,34.05
2023-07-11T10:02:19.814Z,33.85
2023-07-11T10:03:19.759Z,33.55
2023-07-11T10:04:19.845Z,33.38
2023-07-11T10:05:19.739Z,33.42
2023-07-11T10:06:22.918Z,33.61
2023-07-11T10:07:20.701Z,33.78
2023-07-11T10:08:19.672Z,33.97
2023-07-11T10:09:19.672Z,34.03
2023-07-11T10:10:19.685Z,33.86
2023-07-11T10:11:19.581Z,33.70
2023-07-11T10:12:19.532Z,33.77
2023-07-11T10:13:26.705Z,33.72
2023-07-11T10:14:20.521Z,33.62
2023-07-11T10:15:19.469Z,33.51
2023-07-11T10:16:19.366Z,33.75
2023-07-11T10:17:19.492Z,33.70
2023-07-11T10:18:19.405Z,33.64
2023-07-11T10:19:19.282Z,33.47
2023-07-11T10:20:19.969Z,33.28
2023-07-11T10:21:19.850Z,33.27
2023-07-11T10:22:19.179Z,33.27
2023-07-11T10:23:19.135Z,33.27
2023-07-11T10:24:19.115Z,33.19
2023-07-11T10:25:19.078Z,33.08
2023-07-11T10:26:19.088Z,33.37
2023-07-11T10:27:19.037Z,33.28
2023-07-11T10:28:19.010Z,33.13
2023-07-11T10:29:25.131Z,33.13
2023-07-11T10:30:19.942Z,33.09
2023-07-11T10:31:18.927Z,33.05
2023-07-11T10:32:18.951Z,33.16
2023-07-11T10:33:23.382Z,33.21
2023-07-11T10:34:19.860Z,33.13
2023-07-11T10:35:18.843Z,33.35
2023-07-11T10:36:18.805Z,33.20
2023-07-11T10:37:18.757Z,33.17
2023-07-11T10:38:18.767Z,33.08
2023-07-11T10:39:18.733Z,33.15
2023-07-11T10:40:18.665Z,33.05
2023-07-11T10:41:18.656Z,32.93
2023-07-11T10:42:18.595Z,33.00
2023-07-11T10:43:18.602Z,33.03
2023-07-11T10:44:18.672Z,33.08
2023-07-11T10:45:18.655Z,33.11
2023-07-11T10:46:18.667Z,33.07
2023-07-11T10:47:18.573Z,33.00
2023-07-11T10:48:18.562Z,32.89
2023-07-11T10:49:18.562Z,32.85
2023-07-11T10:50:18.546Z,33.09
2023-07-11T10:51:18.512Z,33.14
2023-07-11T10:52:18.509Z,32.99
2023-07-11T10:53:18.457Z,32.83
2023-07-11T10:54:18.459Z,32.70
2023-07-11T10:55:18.450Z,32.66
2023-07-11T10:56:20.414Z,32.49
2023-07-11T10:57:22.666Z,32.40
2023-07-11T10:58:19.681Z,32.44
2023-07-11T10:59:18.639Z,32.56
2023-07-11T11:00:18.603Z,32.65
2023-07-11T11:01:18.677Z,32.64
2023-07-11T11:02:18.637Z,32.78
2023-07-11T11:03:18.593Z,32.98
2023-07-11T11:04:18.529Z,33.31
2023-07-11T11:05:18.500Z,33.54
2023-07-11T11:06:18.452Z,33.68
2023-07-11T11:07:18.401Z,33.85
2023-07-11T11:08:18.342Z,34.10
2023-07-11T11:09:18.351Z,34.26
2023-07-11T11:10:18.277Z,34.39
2023-07-11T11:11:18.248Z,34.34
2023-07-11T11:12:18.179Z,34.27
2023-07-11T11:13:18.145Z,34.03
2023-07-11T11:14:18.212Z,34.11
2023-07-11T11:15:18.086Z,34.03
2023-07-11T11:16:18.048Z,34.17
2023-07-11T11:17:18.065Z,34.48
2023-07-11T11:18:17.978Z,34.78
2023-07-11T11:19:17.988Z,35.01
2023-07-11T11:20:17.981Z,35.08
2023-07-11T11:21:21.413Z,35.11
2023-07-11T11:22:18.799Z,35.12
2023-07-11T11:23:17.737Z,34.99
2023-07-11T11:24:17.718Z,35.12
2023-07-11T11:25:17.627Z,35.19
2023-07-11T11:26:17.579Z,35.31
2023-07-11T11:27:17.535Z,35.42
2023-07-11T11:28:17.493Z,35.40
2023-07-11T11:29:17.492Z,35.58
2023-07-11T11:30:17.407Z,35.90
2023-07-11T11:31:17.515Z,36.16
2023-07-11T11:32:17.300Z,36.31
2023-07-11T11:33:17.208Z,36.40
2023-07-11T11:34:17.175Z,36.49
2023-07-11T11:35:17.202Z,36.15
2023-07-11T11:36:17.069Z,35.87
2023-07-11T11:37:17.079Z,36.03
2023-07-11T11:38:17.064Z,36.21
2023-07-11T11:39:17.033Z,36.24
2023-07-11T11:40:17.105Z,36.25
2023-07-11T11:41:16.930Z,36.31
2023-07-11T11:42:16.910Z,36.37
2023-07-11T11:43:19.210Z,36.33
2023-07-11T11:51:16.466Z,36.02
2023-07-11T11:52:16.349Z,35.70
2023-07-11T11:53:18.353Z,35.18
2023-07-11T11:54:16.299Z,34.63
2023-07-11T11:55:16.243Z,34.39
2023-07-11T11:56:23.281Z,34.46
2023-07-11T11:57:17.164Z,34.77
2023-07-11T11:58:16.110Z,35.01
2023-07-11T11:59:16.072Z,34.95
2023-07-11T12:00:16.056Z,34.95
2023-07-11T12:01:15.986Z,35.04
2023-07-11T12:02:15.955Z,35.03
2023-07-11T12:03:15.883Z,35.05
2023-07-11T12:04:15.927Z,34.90
2023-07-11T12:05:15.866Z,34.68
2023-07-11T12:06:15.737Z,34.81
2023-07-11T12:07:15.663Z,34.93
2023-07-11T12:08:15.660Z,35.09
2023-07-11T12:09:15.593Z,34.91
2023-07-11T12:10:16.237Z,34.65
2023-07-11T12:11:15.476Z,34.20
2023-07-11T12:12:15.453Z,33.92
2023-07-11T12:13:15.409Z,33.63
2023-07-11T12:14:15.465Z,33.59
2023-07-11T12:15:15.394Z,33.39
2023-07-11T12:16:21.336Z,33.10
2023-07-11T12:17:16.387Z,33.00
2023-07-11T12:18:15.333Z,32.93
2023-07-11T12:19:15.320Z,33.06
2023-07-11T12:20:15.292Z,32.94
2023-07-11T12:21:15.311Z,32.75
2023-07-11T12:22:15.292Z,32.60
2023-07-11T12:23:29.925Z,32.70
2023-07-11T12:24:41.324Z,32.70
2023-07-11T12:25:16.250Z,32.66
2023-07-11T12:26:15.243Z,32.47
2023-07-11T12:27:15.221Z,32.50
2023-07-11T12:28:15.224Z,32.66
2023-07-11T12:29:15.177Z,32.87
2023-07-11T12:30:15.180Z,33.06
2023-07-11T12:31:15.093Z,33.18
2023-07-11T12:32:15.152Z,33.23
2023-07-11T12:33:15.081Z,33.10
2023-07-11T12:34:14.989Z,33.00
2023-07-11T12:35:15.214Z,32.71
2023-07-11T12:36:14.997Z,32.63
2023-07-11T12:37:14.904Z,32.71
2023-07-11T12:38:14.905Z,32.56
2023-07-11T12:39:14.887Z,32.37
2023-07-11T12:40:14.905Z,32.31
2023-07-11T12:41:14.869Z,32.31
2023-07-11T12:42:14.875Z,32.27
2023-07-11T12:43:14.809Z,32.35
2023-07-11T12:44:14.820Z,32.51
2023-07-11T12:45:14.773Z,32.70
2023-07-11T12:46:14.766Z,32.83
2023-07-11T12:47:14.720Z,32.77
2023-07-11T12:48:14.709Z,32.74
2023-07-11T12:49:14.675Z,32.47
2023-07-11T12:50:14.624Z,32.34
2023-07-11T12:51:14.585Z,32.42
2023-07-11T12:52:14.517Z,32.48
2023-07-11T12:53:14.553Z,32.52
2023-07-11T12:54:14.516Z,32.55
2023-07-11T12:55:14.423Z,32.62
2023-07-11T12:56:14.385Z,32.68
2023-07-11T12:57:14.359Z,32.80
2023-07-11T12:58:14.326Z,32.89
2023-07-11T12:59:14.298Z,32.96
2023-07-11T13:00:14.254Z,33.12